الصفحة الرئيسية
METAR-TAF:

METAR-TAF

مطار :

مطار البحرين الدولي

البحرين, البحرين

دائرة عرض: 26-16N, خط طول: 050-39E, ارتفاع: 2 متر

مراقبة الطقس الحالي

تاريخ ووقت الإصدار 18 دقيقة قبل الساعة 04:00UTC
ريح 4 عقدة من الغرب/الشمال الغربي, الاتجاه يتراوح بين الغرب/الجنوب الغربي و الشمال/الشمال الغربي
درجة الحرارة 33°درجة مئوية
الرطوبة 80%
ضغط 1008 hPa
الرؤية: 5000 متر
سماء صافية
العجاج

METAR: OBBI 240400Z 29004KT 240V330 5000 HZ SKC 33/29 Q1008 NOSIG

زمن: 07:18 (04:18 UTC)

توقعات

تاريخ ووقت الإصدار 5ساعات و 18 دقيقة قبل الساعة 23:00UTC
التوقعات صالحة من24 الساعة 00 UTC إلى 25 الساعة 06 UTC
ريح 5 عقدةمن اتجاهات متغيرة
الرؤية: 7000 متر
نظرية الاحتمالات 30% :
مؤقت
من 24 الساعة 00 UTC إلى 24 الساعة 05 UTC
الرؤية: 5000 متر
العجاج
نظرية الاحتمالات 30% :
مؤقت
من 24 الساعة 22 UTC إلى 25 الساعة 05 UTC
الرؤية: 5000 متر
العجاج

TAF: OBBI 232300Z 2400/2506 VRB05KT 7000 NSC PROB30 TEMPO 2400/2405 5000 HZ PROB30 TEMPO 2422/2505 5000 HZ

أرصاد الطقس والتوقعات من أكثر من 4000 مطار (تقارير الطقس للمطار METAR والتنبؤ بالطقس بالمطارTAF).

المحطات المتاحة هي النقط الصفراء والحمراء على الخريطة.

حرك المؤشر فوق النقطة لمعرفة اسم المحطة.

ثم انقر لمعرفة أرصاد وتوقعات الطقس.

لتغيير الخارطة: اضغط على الأزرار الخضراء مع رمز الصليب الأسود للتكبير. على الزر الأخضر مع شرطة للتصغير، أو على الأسهم الخضراء للخرائط المجاورة.


METAR-TAF: